Alfred, North Dakota
Current Conditions -  °F | °C
As of 9:56 PM on Saturday 25 Oct 2014 (Local Time) from KJMS Reporting Station
Clear Clear  
Wind Chill: 39°   Ceiling: Unl
Heat Index: 42°   Visibility: 10mi
Dew Point: 27°   Wind: 5mph
Humidity: 55%   Direction: 150°SSE
Pressure: 30.01"   Gusts: NA
Location:  46.4882°N, 98.8135°W
Report Text: KJMS 260256Z AUTO 15004KT 10SM CLR 06/M03 A3001 RMK AO2 SLP172 T00561028 58009
Loading
Personal Weather Stations






























Interactive Weather Map
Tropical Storm Tracking
New forecast layout! Learn more

10-Day Weather Forecast

Advertisements
Track Severe Weather on mobile